KAAF/AAF METAR and TAF weather

Enter ICAO airport designator
Station Type Date Time Source
KAAF METAR 2019/08/24 08:53 UTC NOAA

KAAF 240853Z AUTO 02004KT 10SM CLR 26/24 A2995 RMK AO2 SLP141 T02560239 58012 $


Station Type Date Time Source
KAAF Decoded METAR 2019/08/24 08:53 UTC NOAA

Station name not available
Aug 24, 2019 - 04:53 AM EDT / 2019.08.24 0853 UTC
Wind: from the NNE (020 degrees) at 5 MPH (4 KT):0
Visibility: 10 mile(s):0
Sky conditions: clear
Temperature: 78.1 F (25.6 C)
Dew Point: 75.0 F (23.9 C)
Relative Humidity: 90%
Pressure (altimeter): 29.95 in. Hg (1014 hPa)
Pressure tendency: 0.04 inches (1.2 hPa) lower than three hours ago
ob: KAAF 240853Z AUTO 02004KT 10SM CLR 26/24 A2995 RMK AO2 SLP141 T02560239 58012
cycle: 9

Station Type Date Time Source
KAAF TAF UTC NOAA

Error!

Example: see airport list